createdAt,value
2018-03-21T00:00:13.184Z,996.25
2018-03-21T00:01:13.334Z,996.24
2018-03-21T00:02:13.484Z,996.25
2018-03-21T00:03:13.634Z,996.22
2018-03-21T00:04:13.785Z,996.23
2018-03-21T00:05:13.945Z,996.27
2018-03-21T00:06:14.095Z,996.26
2018-03-21T00:07:14.829Z,996.27
2018-03-21T00:08:14.346Z,996.28
2018-03-21T00:09:14.496Z,996.29
2018-03-21T00:10:14.648Z,996.26
2018-03-21T00:11:14.794Z,996.30
2018-03-21T00:12:14.997Z,996.32
2018-03-21T00:13:15.100Z,996.33
2018-03-21T00:14:15.249Z,996.32
2018-03-21T00:15:15.401Z,996.36
2018-03-21T00:16:15.548Z,996.35
2018-03-21T00:17:15.701Z,996.37
2018-03-21T00:18:15.852Z,996.38
2018-03-21T00:19:16.001Z,996.39
2018-03-21T00:20:16.210Z,996.44
2018-03-21T00:21:16.298Z,996.46
2018-03-21T00:22:16.458Z,996.46
2018-03-21T00:23:16.609Z,996.48
2018-03-21T00:24:16.766Z,996.51
2018-03-21T00:25:16.918Z,996.49
2018-03-21T00:26:17.069Z,996.51
2018-03-21T00:27:17.225Z,996.53
2018-03-21T00:28:17.373Z,996.54
2018-03-21T00:29:17.528Z,996.57
2018-03-21T00:30:17.676Z,996.55
2018-03-21T00:31:17.825Z,996.59
2018-03-21T00:32:17.979Z,996.57
2018-03-21T00:33:18.131Z,996.53
2018-03-21T00:34:18.280Z,996.57
2018-03-21T00:35:18.430Z,996.58
2018-03-21T00:36:18.579Z,996.58
2018-03-21T00:37:18.732Z,996.63
2018-03-21T00:38:18.879Z,996.61
2018-03-21T00:39:19.031Z,996.62
2018-03-21T00:40:19.183Z,996.64
2018-03-21T00:41:19.336Z,996.60
2018-03-21T00:42:19.484Z,996.62
2018-03-21T00:43:19.631Z,996.63
2018-03-21T00:44:19.784Z,996.67
2018-03-21T00:45:19.934Z,996.66
2018-03-21T00:46:20.084Z,996.66
2018-03-21T00:47:20.236Z,996.69
2018-03-21T00:48:20.383Z,996.67
2018-03-21T00:49:20.539Z,996.68
2018-03-21T00:50:20.686Z,996.72
2018-03-21T00:51:20.836Z,996.67
2018-03-21T00:52:20.989Z,996.70
2018-03-21T00:53:21.142Z,996.73
2018-03-21T00:54:21.283Z,996.71
2018-03-21T00:55:21.433Z,996.73
2018-03-21T00:56:21.584Z,996.74
2018-03-21T00:57:21.741Z,996.78
2018-03-21T00:58:21.891Z,996.79
2018-03-21T00:59:22.040Z,996.76
2018-03-21T01:00:22.191Z,996.76
2018-03-21T01:01:22.341Z,996.81
2018-03-21T01:02:22.493Z,996.83
2018-03-21T01:03:22.650Z,996.79
2018-03-21T01:04:22.788Z,996.82
2018-03-21T01:05:22.938Z,996.82
2018-03-21T01:06:23.088Z,996.80
2018-03-21T01:07:23.247Z,996.80
2018-03-21T01:08:23.393Z,996.82
2018-03-21T01:09:23.546Z,996.82
2018-03-21T01:10:23.694Z,996.79
2018-03-21T01:11:23.864Z,996.85
2018-03-21T01:12:23.998Z,996.84
2018-03-21T01:13:24.152Z,996.82
2018-03-21T01:14:24.298Z,996.84
2018-03-21T01:15:24.448Z,996.86
2018-03-21T01:16:24.597Z,996.85
2018-03-21T01:17:24.753Z,996.87
2018-03-21T01:18:24.899Z,996.84
2018-03-21T01:19:25.055Z,996.86
2018-03-21T01:20:25.202Z,996.86
2018-03-21T01:21:25.352Z,996.85
2018-03-21T01:22:25.503Z,996.85
2018-03-21T01:23:25.651Z,996.87
2018-03-21T01:24:25.810Z,996.85
2018-03-21T01:25:25.948Z,996.82
2018-03-21T01:26:26.098Z,996.85
2018-03-21T01:27:26.254Z,996.84
2018-03-21T01:28:26.399Z,996.86
2018-03-21T01:29:26.551Z,996.86
2018-03-21T01:30:26.701Z,996.84
2018-03-21T01:31:26.850Z,996.81
2018-03-21T01:32:27.006Z,996.83
2018-03-21T01:33:27.152Z,996.80
2018-03-21T01:34:27.303Z,996.81
2018-03-21T01:35:27.454Z,996.80
2018-03-21T01:36:27.607Z,996.85
2018-03-21T01:37:27.760Z,996.83
2018-03-21T01:38:27.909Z,996.81
2018-03-21T01:39:28.054Z,996.85
2018-03-21T01:40:28.204Z,996.87
2018-03-21T01:41:28.372Z,996.87
2018-03-21T01:42:28.511Z,996.88
2018-03-21T01:43:28.658Z,996.87
2018-03-21T01:44:28.812Z,996.89
2018-03-21T01:45:28.960Z,996.88
2018-03-21T01:46:29.110Z,996.87
2018-03-21T01:47:29.267Z,996.88
2018-03-21T01:48:29.416Z,996.92
2018-03-21T01:49:29.566Z,996.90
2018-03-21T01:50:29.723Z,996.88
2018-03-21T01:51:29.865Z,996.86
2018-03-21T01:52:30.017Z,996.90
2018-03-21T01:53:30.171Z,996.86
2018-03-21T01:54:30.316Z,996.89
2018-03-21T01:55:30.467Z,996.90
2018-03-21T01:56:30.616Z,996.95
2018-03-21T01:57:30.770Z,996.89
2018-03-21T01:58:30.922Z,996.95
2018-03-21T01:59:31.070Z,996.97
2018-03-21T02:00:31.219Z,996.90
2018-03-21T02:01:31.381Z,996.93
2018-03-21T02:02:31.518Z,996.95
2018-03-21T02:03:31.668Z,996.92
2018-03-21T02:04:31.814Z,996.94
2018-03-21T02:05:31.964Z,996.95
2018-03-21T02:06:32.113Z,996.92
2018-03-21T02:07:32.263Z,996.95
2018-03-21T02:08:32.419Z,996.92
2018-03-21T02:09:32.559Z,996.93
2018-03-21T02:10:32.715Z,996.90
2018-03-21T02:11:32.862Z,996.93
2018-03-21T02:12:33.000Z,996.91
2018-03-21T02:13:33.149Z,996.90
2018-03-21T02:14:33.303Z,996.89
2018-03-21T02:15:33.457Z,996.88
2018-03-21T02:16:33.607Z,996.89
2018-03-21T02:17:33.748Z,996.92
2018-03-21T02:18:33.894Z,996.90
2018-03-21T02:19:34.047Z,996.91
2018-03-21T02:20:34.192Z,996.92
2018-03-21T02:21:34.343Z,996.92
2018-03-21T02:22:34.491Z,996.91
2018-03-21T02:23:34.643Z,996.89
2018-03-21T02:24:34.788Z,996.88
2018-03-21T02:25:34.942Z,996.89
2018-03-21T02:26:35.092Z,996.92
2018-03-21T02:27:35.241Z,996.87
2018-03-21T02:28:35.394Z,996.92
2018-03-21T02:29:35.542Z,996.91
2018-03-21T02:30:35.693Z,996.93
2018-03-21T02:31:35.842Z,996.91
2018-03-21T02:32:35.993Z,996.89
2018-03-21T02:33:36.148Z,996.90
2018-03-21T02:34:36.295Z,996.95
2018-03-21T02:35:36.494Z,996.91
2018-03-21T02:36:36.595Z,997.00
2018-03-21T02:37:36.747Z,996.99
2018-03-21T02:38:36.905Z,997.02
2018-03-21T02:39:37.048Z,997.01
2018-03-21T02:40:37.198Z,996.98
2018-03-21T02:41:37.347Z,997.01
2018-03-21T02:42:37.498Z,997.00
2018-03-21T02:43:37.669Z,996.99
2018-03-21T02:44:37.804Z,997.02
2018-03-21T02:45:37.953Z,997.04
2018-03-21T02:46:38.102Z,997.03
2018-03-21T02:47:38.252Z,997.02
2018-03-21T02:48:38.406Z,997.08
2018-03-21T02:49:38.550Z,997.06
2018-03-21T02:50:38.706Z,997.09
2018-03-21T02:51:38.855Z,997.04
2018-03-21T02:52:39.005Z,997.10
2018-03-21T02:53:39.159Z,997.12
2018-03-21T02:54:39.302Z,997.11
2018-03-21T02:55:39.454Z,997.09
2018-03-21T02:56:39.604Z,997.10
2018-03-21T02:57:39.754Z,997.08
2018-03-21T02:58:39.912Z,997.08
2018-03-21T02:59:40.058Z,997.06
2018-03-21T03:00:40.208Z,997.08
2018-03-21T03:01:40.357Z,997.04
2018-03-21T03:02:40.505Z,997.05
2018-03-21T03:03:40.663Z,997.05
2018-03-21T03:04:40.822Z,997.04
2018-03-21T03:05:40.972Z,997.06
2018-03-21T03:06:41.115Z,997.07
2018-03-21T03:07:41.262Z,997.04
2018-03-21T03:08:41.412Z,997.08
2018-03-21T03:09:41.558Z,997.10
2018-03-21T03:10:41.713Z,997.07
2018-03-21T03:11:41.857Z,997.10
2018-03-21T03:12:42.012Z,997.05
2018-03-21T03:13:42.163Z,997.06
2018-03-21T03:14:42.310Z,997.08
2018-03-21T03:15:42.457Z,997.04
2018-03-21T03:16:42.608Z,997.03
2018-03-21T03:17:42.753Z,997.03
2018-03-21T03:18:42.905Z,997.03
2018-03-21T03:19:43.063Z,997.06
2018-03-21T03:20:43.202Z,997.08
2018-03-21T03:21:43.351Z,997.10
2018-03-21T03:22:43.497Z,997.10
2018-03-21T03:23:43.649Z,997.11
2018-03-21T03:24:43.798Z,997.14
2018-03-21T03:25:43.947Z,997.11
2018-03-21T03:26:44.101Z,997.09
2018-03-21T03:27:44.249Z,997.08
2018-03-21T03:28:44.398Z,997.12
2018-03-21T03:29:44.549Z,997.11
2018-03-21T03:30:44.701Z,997.12
2018-03-21T03:31:44.854Z,997.08
2018-03-21T03:32:45.003Z,997.10
2018-03-21T03:33:45.152Z,997.12
2018-03-21T03:34:45.301Z,997.11
2018-03-21T03:35:45.451Z,997.10
2018-03-21T03:36:45.604Z,997.08
2018-03-21T03:37:45.750Z,997.12
2018-03-21T03:38:45.902Z,997.13
2018-03-21T03:39:46.050Z,997.11
2018-03-21T03:40:46.200Z,997.13
2018-03-21T03:41:46.355Z,997.14
2018-03-21T03:42:46.501Z,997.15
2018-03-21T03:43:46.644Z,997.14
2018-03-21T03:44:46.797Z,997.14
2018-03-21T03:45:46.940Z,997.11
2018-03-21T03:46:47.092Z,997.09
2018-03-21T03:47:47.239Z,997.12
2018-03-21T03:48:47.391Z,997.15
2018-03-21T03:49:47.541Z,997.16
2018-03-21T03:50:47.690Z,997.15
2018-03-21T03:51:47.839Z,997.13
2018-03-21T03:52:47.989Z,997.15
2018-03-21T03:53:48.139Z,997.12
2018-03-21T03:54:48.293Z,997.21
2018-03-21T03:55:48.442Z,997.20
2018-03-21T03:56:48.591Z,997.24
2018-03-21T03:57:48.739Z,997.23
2018-03-21T03:58:48.896Z,997.21
2018-03-21T03:59:49.047Z,997.23
2018-03-21T04:00:49.195Z,997.18
2018-03-21T04:01:49.352Z,997.21
2018-03-21T04:02:49.493Z,997.20
2018-03-21T04:03:49.643Z,997.15
2018-03-21T04:04:49.800Z,997.19
2018-03-21T04:05:49.953Z,997.15
2018-03-21T04:06:50.100Z,997.15
2018-03-21T04:07:50.251Z,997.13
2018-03-21T04:08:50.395Z,997.13
2018-03-21T04:09:50.551Z,997.17
2018-03-21T04:10:50.699Z,997.15
2018-03-21T04:11:50.853Z,997.20
2018-03-21T04:12:50.998Z,997.19
2018-03-21T04:13:51.147Z,997.23
2018-03-21T04:14:51.305Z,997.27
2018-03-21T04:15:51.453Z,997.26
2018-03-21T04:16:51.602Z,997.22
2018-03-21T04:17:51.752Z,997.27
2018-03-21T04:18:51.900Z,997.27
2018-03-21T04:19:52.056Z,997.26
2018-03-21T04:20:52.204Z,997.26
2018-03-21T04:21:52.348Z,997.26
2018-03-21T04:22:52.497Z,997.28
2018-03-21T04:23:52.647Z,997.28
2018-03-21T04:24:52.795Z,997.29
2018-03-21T04:25:52.942Z,997.25
2018-03-21T04:26:53.088Z,997.28
2018-03-21T04:27:53.239Z,997.28
2018-03-21T04:28:53.385Z,997.28
2018-03-21T04:29:53.537Z,997.29
2018-03-21T04:30:53.685Z,997.31
2018-03-21T04:31:53.834Z,997.31
2018-03-21T04:32:54.008Z,997.30
2018-03-21T04:33:54.152Z,997.31
2018-03-21T04:34:54.311Z,997.26
2018-03-21T04:35:54.463Z,997.25
2018-03-21T04:36:54.604Z,997.24
2018-03-21T04:37:54.753Z,997.25
2018-03-21T04:38:54.901Z,997.26
2018-03-21T04:39:55.036Z,997.27
2018-03-21T04:40:55.185Z,997.27
2018-03-21T04:41:55.336Z,997.28
2018-03-21T04:42:55.482Z,997.29
2018-03-21T04:43:55.631Z,997.29
2018-03-21T04:44:55.777Z,997.27
2018-03-21T04:45:55.953Z,997.21
2018-03-21T04:46:56.072Z,997.24
2018-03-21T04:47:56.212Z,997.25
2018-03-21T04:48:56.375Z,997.22
2018-03-21T04:49:56.524Z,997.23
2018-03-21T04:50:56.679Z,997.25
2018-03-21T04:51:56.826Z,997.28
2018-03-21T04:52:56.977Z,997.28
2018-03-21T04:53:57.126Z,997.32
2018-03-21T04:54:57.277Z,997.35
2018-03-21T04:55:57.430Z,997.32
2018-03-21T04:56:57.576Z,997.32
2018-03-21T04:57:57.727Z,997.32
2018-03-21T04:58:57.877Z,997.32
2018-03-21T04:59:58.025Z,997.36
2018-03-21T05:00:58.182Z,997.33
2018-03-21T05:01:58.375Z,997.36
2018-03-21T05:02:58.480Z,997.36
2018-03-21T05:03:58.628Z,997.35
2018-03-21T05:04:58.778Z,997.40
2018-03-21T05:05:58.936Z,997.40
2018-03-21T05:06:59.082Z,997.45
2018-03-21T05:07:59.235Z,997.43
2018-03-21T05:08:59.381Z,997.48
2018-03-21T05:09:59.530Z,997.47
2018-03-21T05:10:59.689Z,997.52
2018-03-21T05:11:59.833Z,997.52
2018-03-21T05:12:59.984Z,997.53
2018-03-21T05:14:00.136Z,997.53
2018-03-21T05:15:00.280Z,997.55
2018-03-21T05:16:00.422Z,997.53
2018-03-21T05:17:00.574Z,997.58
2018-03-21T05:18:01.032Z,997.57
2018-03-21T05:19:01.232Z,997.57
2018-03-21T05:20:01.021Z,997.58
2018-03-21T05:21:01.171Z,997.58
2018-03-21T05:22:01.323Z,997.60
2018-03-21T05:23:01.467Z,997.58
2018-03-21T05:24:01.627Z,997.62
2018-03-21T05:25:01.774Z,997.61
2018-03-21T05:26:01.924Z,997.64
2018-03-21T05:27:02.076Z,997.68
2018-03-21T05:28:02.221Z,997.63
2018-03-21T05:29:02.378Z,997.66
2018-03-21T05:30:02.526Z,997.70
2018-03-21T05:31:02.674Z,997.71
2018-03-21T05:32:02.823Z,997.71
2018-03-21T05:33:02.973Z,997.73
2018-03-21T05:34:03.129Z,997.74
2018-03-21T05:35:03.275Z,997.74
2018-03-21T05:36:03.428Z,997.76
2018-03-21T05:37:03.597Z,997.74
2018-03-21T05:38:03.737Z,997.76
2018-03-21T05:39:03.887Z,997.76
2018-03-21T05:40:04.032Z,997.76
2018-03-21T05:41:04.186Z,997.78
2018-03-21T05:42:04.332Z,997.77
2018-03-21T05:43:04.481Z,997.82
2018-03-21T05:44:04.640Z,997.85
2018-03-21T05:45:04.788Z,997.85
2018-03-21T05:46:04.937Z,997.87
2018-03-21T05:47:05.088Z,997.87
2018-03-21T05:48:05.285Z,997.85
2018-03-21T05:49:05.385Z,997.89
2018-03-21T05:50:05.534Z,997.92
2018-03-21T05:51:05.688Z,997.87
2018-03-21T05:52:05.837Z,997.88
2018-03-21T05:53:05.985Z,997.87
2018-03-21T05:54:06.143Z,997.92
2018-03-21T05:55:06.288Z,997.92
2018-03-21T05:56:06.441Z,997.92
2018-03-21T05:57:06.590Z,997.94
2018-03-21T05:58:06.738Z,997.95
2018-03-21T05:59:06.892Z,997.95
2018-03-21T06:00:07.043Z,997.93
2018-03-21T06:01:07.184Z,997.96
2018-03-21T06:02:07.331Z,997.97
2018-03-21T06:03:07.480Z,997.95
2018-03-21T06:04:07.629Z,997.97
2018-03-21T06:05:07.781Z,997.97
2018-03-21T06:06:07.926Z,997.96
2018-03-21T06:07:08.077Z,997.97
2018-03-21T06:08:08.226Z,997.98
2018-03-21T06:09:08.369Z,997.99
2018-03-21T06:10:08.519Z,997.96
2018-03-21T06:11:08.666Z,997.97
2018-03-21T06:12:08.826Z,997.98
2018-03-21T06:13:08.976Z,998.01
2018-03-21T06:14:09.123Z,998.02
2018-03-21T06:15:09.272Z,998.05
2018-03-21T06:16:09.420Z,998.07
2018-03-21T06:17:09.578Z,998.06
2018-03-21T06:18:09.728Z,998.10
2018-03-21T06:19:09.876Z,998.10
2018-03-21T06:20:10.024Z,998.11
2018-03-21T06:21:10.172Z,998.09
2018-03-21T06:22:10.330Z,998.16
2018-03-21T06:23:10.478Z,998.13
2018-03-21T06:24:10.628Z,998.12
2018-03-21T06:25:10.779Z,998.17
2018-03-21T06:26:10.910Z,998.10
2018-03-21T06:27:11.055Z,998.11
2018-03-21T06:28:11.209Z,998.13
2018-03-21T06:29:11.355Z,998.12
2018-03-21T06:30:11.505Z,998.10
2018-03-21T06:31:11.659Z,998.11
2018-03-21T06:32:11.800Z,998.17
2018-03-21T06:33:11.950Z,998.14
2018-03-21T06:34:12.100Z,998.19
2018-03-21T06:35:12.248Z,998.16
2018-03-21T06:36:12.401Z,998.14
2018-03-21T06:37:12.547Z,998.16
2018-03-21T06:38:12.700Z,998.17
2018-03-21T06:39:12.853Z,998.18
2018-03-21T06:40:12.998Z,998.15
2018-03-21T06:41:13.165Z,998.16
2018-03-21T06:42:13.324Z,998.17
2018-03-21T06:43:13.461Z,998.16
2018-03-21T06:44:13.611Z,998.17
2018-03-21T06:45:13.760Z,998.16
2018-03-21T06:46:13.917Z,998.15
2018-03-21T06:47:14.057Z,998.16
2018-03-21T06:48:14.254Z,998.16
2018-03-21T06:49:14.357Z,998.11
2018-03-21T06:50:14.506Z,998.16
2018-03-21T06:51:14.656Z,998.14
2018-03-21T06:52:14.807Z,998.12
2018-03-21T06:53:14.956Z,998.13
2018-03-21T06:54:15.106Z,998.18
2018-03-21T06:55:15.254Z,998.18
2018-03-21T06:56:15.403Z,998.21
2018-03-21T06:57:15.554Z,998.20
2018-03-21T06:58:15.754Z,998.22
2018-03-21T06:59:15.853Z,998.21
2018-03-21T07:00:16.002Z,998.24
2018-03-21T07:01:16.150Z,998.25
2018-03-21T07:02:16.294Z,998.23
2018-03-21T07:03:16.449Z,998.26
2018-03-21T07:04:16.606Z,998.25
2018-03-21T07:05:16.748Z,998.25
2018-03-21T07:06:16.896Z,998.25
2018-03-21T07:07:17.047Z,998.30
2018-03-21T07:08:17.196Z,998.31
2018-03-21T07:09:17.348Z,998.34
2018-03-21T07:10:17.496Z,998.30
2018-03-21T07:11:17.647Z,998.38
2018-03-21T07:12:17.795Z,998.35
2018-03-21T07:13:17.953Z,998.39
2018-03-21T07:14:18.112Z,998.39
2018-03-21T07:15:18.249Z,998.43
2018-03-21T07:16:18.402Z,998.40
2018-03-21T07:17:18.548Z,998.40
2018-03-21T07:18:18.734Z,998.38
2018-03-21T07:19:18.884Z,998.41
2018-03-21T07:20:19.043Z,998.41
2018-03-21T07:21:19.191Z,998.39
2018-03-21T07:22:19.348Z,998.42
2018-03-21T07:23:19.633Z,998.42
2018-03-21T07:24:19.630Z,998.42
2018-03-21T07:25:19.779Z,998.42
2018-03-21T07:26:19.930Z,998.41
2018-03-21T07:27:20.074Z,998.40
2018-03-21T07:28:20.224Z,998.44
2018-03-21T07:29:20.377Z,998.41
2018-03-21T07:30:20.519Z,998.40
2018-03-21T07:31:20.670Z,998.40
2018-03-21T07:32:20.819Z,998.43
2018-03-21T07:33:20.978Z,998.47
2018-03-21T07:34:21.129Z,998.45
2018-03-21T07:35:21.279Z,998.41
2018-03-21T07:36:21.431Z,998.44
2018-03-21T07:37:21.580Z,998.45
2018-03-21T07:38:21.737Z,998.49
2018-03-21T07:39:21.882Z,998.46
2018-03-21T07:40:22.031Z,998.49
2018-03-21T07:41:22.182Z,998.50
2018-03-21T07:42:22.335Z,998.47
2018-03-21T07:43:22.486Z,998.51
2018-03-21T07:44:22.636Z,998.54
2018-03-21T07:45:22.791Z,998.47
2018-03-21T07:46:22.933Z,998.50
2018-03-21T07:47:23.089Z,998.58
2018-03-21T07:48:23.240Z,998.61
2018-03-21T07:49:23.384Z,998.63
2018-03-21T07:50:23.542Z,998.60
2018-03-21T07:51:23.702Z,998.64
2018-03-21T07:52:23.845Z,998.63
2018-03-21T07:53:23.992Z,998.65
2018-03-21T07:54:24.139Z,998.69
2018-03-21T07:55:24.313Z,998.69
2018-03-21T07:56:24.488Z,998.75
2018-03-21T07:57:24.607Z,998.77
2018-03-21T07:58:24.748Z,998.79
2018-03-21T07:59:24.899Z,998.79
2018-03-21T08:00:25.057Z,998.80
2018-03-21T08:01:25.275Z,998.83
2018-03-21T08:02:25.390Z,998.78
2018-03-21T08:03:25.533Z,998.77
2018-03-21T08:04:25.696Z,998.76
2018-03-21T08:05:25.866Z,998.75
2018-03-21T08:06:25.989Z,998.80
2018-03-21T08:07:26.143Z,998.79
2018-03-21T08:08:26.293Z,998.82
2018-03-21T08:09:26.459Z,998.79
2018-03-21T08:10:26.611Z,998.81
2018-03-21T08:11:26.762Z,998.79
2018-03-21T08:12:26.922Z,998.81
2018-03-21T08:13:27.062Z,998.78
2018-03-21T08:14:27.223Z,998.76
2018-03-21T08:15:27.362Z,998.78
2018-03-21T08:16:27.517Z,998.76
2018-03-21T08:17:27.674Z,998.78
2018-03-21T08:18:27.820Z,998.75
2018-03-21T08:19:27.971Z,998.76
2018-03-21T08:20:28.131Z,998.76
2018-03-21T08:21:28.685Z,998.76
2018-03-21T08:22:28.468Z,998.76
2018-03-21T08:23:28.686Z,998.75
2018-03-21T08:24:28.794Z,998.78
2018-03-21T08:25:28.947Z,998.80
2018-03-21T08:26:29.098Z,998.79
2018-03-21T08:27:29.250Z,998.76
2018-03-21T08:28:29.405Z,998.80
2018-03-21T08:29:29.553Z,998.77
2018-03-21T08:30:29.715Z,998.77
2018-03-21T08:31:29.855Z,998.77
2018-03-21T08:32:30.010Z,998.75
2018-03-21T08:33:30.160Z,998.71
2018-03-21T08:34:30.340Z,998.80
2018-03-21T08:35:30.474Z,998.78
2018-03-21T08:36:30.619Z,998.79
2018-03-21T08:37:30.776Z,998.79
2018-03-21T08:38:30.919Z,998.79
2018-03-21T08:39:31.071Z,998.80
2018-03-21T08:40:31.221Z,998.76
2018-03-21T08:41:31.376Z,998.77
2018-03-21T08:42:31.528Z,998.79
2018-03-21T08:43:31.748Z,998.76
2018-03-21T08:44:31.830Z,998.78
2018-03-21T08:45:31.985Z,998.77
2018-03-21T08:46:32.148Z,998.78
2018-03-21T08:47:32.307Z,998.80
2018-03-21T08:48:32.465Z,998.72
2018-03-21T08:49:32.621Z,998.77
2018-03-21T08:50:32.769Z,998.73
2018-03-21T08:51:32.920Z,998.74
2018-03-21T08:52:33.076Z,998.75
2018-03-21T08:53:33.227Z,998.75
2018-03-21T08:54:33.382Z,998.73
2018-03-21T08:55:33.540Z,998.76
2018-03-21T08:56:33.690Z,998.72
2018-03-21T08:57:33.846Z,998.73
2018-03-21T08:58:33.998Z,998.74
2018-03-21T08:59:34.148Z,998.71
2018-03-21T09:00:34.302Z,998.72
2018-03-21T09:01:34.454Z,998.74
2018-03-21T09:02:34.614Z,998.77
2018-03-21T09:03:34.770Z,998.74
2018-03-21T09:04:34.922Z,998.79
2018-03-21T09:05:35.081Z,998.73
2018-03-21T09:06:35.227Z,998.77
2018-03-21T09:07:35.391Z,998.77
2018-03-21T09:08:35.525Z,998.77
2018-03-21T09:09:35.678Z,998.77
2018-03-21T09:10:35.840Z,998.82
2018-03-21T09:11:35.980Z,998.84
2018-03-21T09:12:36.156Z,998.85
2018-03-21T09:13:36.288Z,998.86
2018-03-21T09:14:36.445Z,998.90
2018-03-21T09:15:36.599Z,998.85
2018-03-21T09:16:36.749Z,998.89
2018-03-21T09:17:36.914Z,998.89
2018-03-21T09:18:37.053Z,998.87
2018-03-21T09:19:37.206Z,998.85
2018-03-21T09:20:37.393Z,998.91
2018-03-21T09:21:37.517Z,998.89
2018-03-21T09:22:37.664Z,998.88
2018-03-21T09:23:37.822Z,998.86
2018-03-21T09:24:37.983Z,998.86
2018-03-21T09:25:38.126Z,998.87
2018-03-21T09:26:38.272Z,998.85
2018-03-21T09:27:38.436Z,998.86
2018-03-21T09:28:38.590Z,998.85
2018-03-21T09:29:38.744Z,998.85
2018-03-21T09:30:38.899Z,998.88
2018-03-21T09:31:39.057Z,998.85
2018-03-21T09:32:39.203Z,998.89
2018-03-21T09:33:39.356Z,998.85
2018-03-21T09:34:39.510Z,998.84
2018-03-21T09:35:39.664Z,998.84
2018-03-21T09:36:39.819Z,998.77
2018-03-21T09:37:39.973Z,998.81
2018-03-21T09:38:40.129Z,998.84
2018-03-21T09:39:40.279Z,998.82
2018-03-21T09:40:40.436Z,998.87
2018-03-21T09:41:40.584Z,998.84
2018-03-21T09:42:40.744Z,998.85
2018-03-21T09:43:40.887Z,998.84
2018-03-21T09:44:41.044Z,998.82
2018-03-21T09:45:41.204Z,998.84
2018-03-21T09:46:41.355Z,998.82
2018-03-21T09:47:41.503Z,998.84
2018-03-21T09:48:41.710Z,998.88
2018-03-21T09:49:41.826Z,998.88
2018-03-21T09:50:41.962Z,998.86
2018-03-21T09:51:42.120Z,998.82
2018-03-21T09:52:42.277Z,998.82
2018-03-21T09:53:42.424Z,998.79
2018-03-21T09:54:42.581Z,998.83
2018-03-21T09:55:42.737Z,998.81
2018-03-21T09:56:42.888Z,998.81
2018-03-21T09:57:43.040Z,998.77
2018-03-21T09:58:43.204Z,998.75
2018-03-21T09:59:43.363Z,998.70
2018-03-21T10:00:43.606Z,998.71
2018-03-21T10:01:43.677Z,998.71
2018-03-21T10:02:43.835Z,998.67
2018-03-21T10:03:43.989Z,998.66
2018-03-21T10:04:44.141Z,998.64
2018-03-21T10:05:44.296Z,998.68
2018-03-21T10:06:44.451Z,998.64
2018-03-21T10:07:44.606Z,998.65
2018-03-21T10:08:44.812Z,998.69
2018-03-21T10:09:44.908Z,998.67
2018-03-21T10:10:45.068Z,998.62
2018-03-21T10:11:45.248Z,998.62
2018-03-21T10:12:45.362Z,998.61
2018-03-21T10:13:45.517Z,998.65
2018-03-21T10:14:45.677Z,998.59
2018-03-21T10:15:45.834Z,998.63
2018-03-21T10:16:45.995Z,998.67
2018-03-21T10:17:46.165Z,998.59
2018-03-21T10:18:46.303Z,998.60
2018-03-21T10:19:46.455Z,998.60
2018-03-21T10:20:46.611Z,998.61
2018-03-21T10:21:46.768Z,998.61
2018-03-21T10:22:46.922Z,998.56
2018-03-21T10:23:47.126Z,998.55
2018-03-21T10:24:47.233Z,998.56
2018-03-21T10:25:47.408Z,998.57
2018-03-21T10:26:47.566Z,998.54
2018-03-21T10:27:47.722Z,998.50
2018-03-21T10:28:47.879Z,998.53
2018-03-21T10:29:48.039Z,998.56
2018-03-21T10:30:48.196Z,998.54
2018-03-21T10:31:48.358Z,998.59
2018-03-21T10:32:48.517Z,998.58
2018-03-21T10:33:48.687Z,998.59
2018-03-21T10:34:48.842Z,998.58
2018-03-21T10:35:49.013Z,998.62
2018-03-21T10:36:49.149Z,998.63
2018-03-21T10:37:49.308Z,998.62
2018-03-21T10:38:49.457Z,998.62
2018-03-21T10:39:49.615Z,998.59
2018-03-21T10:40:49.787Z,998.59
2018-03-21T10:41:49.942Z,998.59
2018-03-21T10:42:50.092Z,998.52
2018-03-21T10:43:50.251Z,998.57
2018-03-21T10:44:50.409Z,998.52
2018-03-21T10:45:50.565Z,998.45
2018-03-21T10:46:50.723Z,998.49
2018-03-21T10:47:50.900Z,998.43
2018-03-21T10:48:51.071Z,998.42
2018-03-21T10:49:51.215Z,998.46
2018-03-21T10:50:51.373Z,998.41
2018-03-21T10:51:51.535Z,998.42
2018-03-21T10:52:51.684Z,998.37
2018-03-21T10:53:51.844Z,998.40
2018-03-21T10:54:52.003Z,998.37
2018-03-21T10:55:52.162Z,998.37
2018-03-21T10:56:52.330Z,998.35
2018-03-21T10:57:52.900Z,998.32
2018-03-21T10:58:52.666Z,998.29
2018-03-21T10:59:52.792Z,998.30
2018-03-21T11:00:52.972Z,998.27
2018-03-21T11:01:53.128Z,998.21
2018-03-21T11:02:53.288Z,998.25
2018-03-21T11:03:53.484Z,998.21
2018-03-21T11:04:53.637Z,998.22
2018-03-21T11:05:53.820Z,998.18
2018-03-21T11:06:53.977Z,998.17
2018-03-21T11:07:54.141Z,998.23
2018-03-21T11:08:54.301Z,998.17
2018-03-21T11:09:54.454Z,998.19
2018-03-21T11:10:54.613Z,998.20
2018-03-21T11:11:54.808Z,998.23
2018-03-21T11:12:54.932Z,998.24
2018-03-21T11:14:10.012Z,998.26
2018-03-21T11:14:55.281Z,998.25
2018-03-21T11:15:55.435Z,998.27
2018-03-21T11:16:55.594Z,998.29
2018-03-21T11:17:55.752Z,998.29
2018-03-21T11:18:55.908Z,998.28
2018-03-21T11:19:56.083Z,998.32
2018-03-21T11:20:56.229Z,998.29
2018-03-21T11:21:56.394Z,998.30
2018-03-21T11:22:56.545Z,998.27
2018-03-21T11:23:56.716Z,998.26
2018-03-21T11:24:56.875Z,998.23
2018-03-21T11:25:57.032Z,998.23
2018-03-21T11:26:57.201Z,998.27
2018-03-21T11:27:57.359Z,998.24
2018-03-21T11:28:57.519Z,998.23
2018-03-21T11:29:57.686Z,998.21
2018-03-21T11:30:57.836Z,998.19
2018-03-21T11:31:58.008Z,998.20
2018-03-21T11:32:58.184Z,998.23
2018-03-21T11:33:58.322Z,998.20
2018-03-21T11:34:58.493Z,998.22
2018-03-21T11:35:58.628Z,998.19
2018-03-21T11:36:58.795Z,998.23
2018-03-21T11:37:58.939Z,998.23
2018-03-21T11:38:59.135Z,998.19
2018-03-21T11:39:59.254Z,998.17
2018-03-21T11:40:59.413Z,998.11
2018-03-21T11:41:59.571Z,998.10
2018-03-21T11:42:59.729Z,998.14
2018-03-21T11:43:59.887Z,998.11
2018-03-21T11:45:00.051Z,998.14
2018-03-21T11:46:00.203Z,998.14
2018-03-21T11:47:00.362Z,998.09
2018-03-21T11:48:00.519Z,998.07
2018-03-21T11:49:00.690Z,998.07
2018-03-21T11:50:00.863Z,998.05
2018-03-21T11:51:01.014Z,998.03
2018-03-21T11:52:01.168Z,998.00
2018-03-21T11:53:01.339Z,998.02
2018-03-21T14:31:45.234Z,996.30
2018-03-21T14:32:45.391Z,996.27
2018-03-21T14:33:45.553Z,996.30
2018-03-21T14:34:45.726Z,996.27
2018-03-21T14:35:46.038Z,996.23
2018-03-21T14:36:46.077Z,996.17
2018-03-21T14:37:46.260Z,996.23
2018-03-21T14:38:46.431Z,996.22
2018-03-21T14:39:46.601Z,996.24
2018-03-21T14:40:46.774Z,996.22
2018-03-21T14:41:46.941Z,996.23
2018-03-21T14:42:47.109Z,996.20
2018-03-21T14:43:47.282Z,996.22
2018-03-21T14:44:47.452Z,996.22
2018-03-21T14:45:47.623Z,996.17
2018-03-21T14:46:47.793Z,996.12
2018-03-21T14:47:47.966Z,996.10
2018-03-21T14:48:48.145Z,996.08
2018-03-21T14:49:48.347Z,996.05
2018-03-21T14:50:48.481Z,996.04
2018-03-21T14:51:48.645Z,996.02
2018-03-21T14:52:48.836Z,995.99
2018-03-21T14:53:49.119Z,995.97
2018-03-21T14:54:49.383Z,995.96
2018-03-21T14:55:49.326Z,995.99
2018-03-21T14:56:49.499Z,995.92
2018-03-21T14:57:49.675Z,995.93
2018-03-21T14:58:49.842Z,995.94
2018-03-21T14:59:50.012Z,995.92
2018-03-21T15:00:50.188Z,995.89
2018-03-21T15:01:50.363Z,995.92
2018-03-21T15:02:50.541Z,995.94
2018-03-21T15:03:50.711Z,995.93
2018-03-21T15:04:50.883Z,995.95
2018-03-21T15:05:51.049Z,995.97
2018-03-21T15:06:51.220Z,995.95
2018-03-21T15:07:51.396Z,995.95